createdAt,value
2018-12-05T00:00:20.459Z,1020.22
2018-12-05T00:00:46.603Z,1020.22
2018-12-05T00:01:12.712Z,1020.25
2018-12-05T00:01:38.816Z,1020.2
2018-12-05T00:02:04.918Z,1020.21
2018-12-05T00:02:31.048Z,1020.18
2018-12-05T00:02:57.133Z,1020.19
2018-12-05T00:03:23.247Z,1020.19
2018-12-05T00:03:49.373Z,1020.2
2018-12-05T00:04:15.513Z,1020.23
2018-12-05T00:04:41.612Z,1020.2
2018-12-05T00:05:07.721Z,1020.21
2018-12-05T00:05:33.839Z,1020.18
2018-12-05T00:05:59.953Z,1020.18
2018-12-05T00:06:26.054Z,1020.18
2018-12-05T00:06:52.196Z,1020.18
2018-12-05T00:07:18.302Z,1020.18
2018-12-05T00:07:44.426Z,1020.17
2018-12-05T00:08:10.564Z,1020.15
2018-12-05T00:08:36.721Z,1020.15
2018-12-05T00:09:02.824Z,1020.14
2018-12-05T00:09:28.946Z,1020.14
2018-12-05T00:09:55.053Z,1020.13
2018-12-05T00:10:21.190Z,1020.09
2018-12-05T00:10:47.323Z,1020.08
2018-12-05T00:11:13.426Z,1020.08
2018-12-05T00:11:39.533Z,1020.1
2018-12-05T00:12:05.651Z,1020.12
2018-12-05T00:12:31.742Z,1020.09
2018-12-05T00:12:57.861Z,1020.15
2018-12-05T00:13:24.008Z,1020.12
2018-12-05T00:13:50.120Z,1020.17
2018-12-05T00:14:16.288Z,1020.18
2018-12-05T00:14:42.401Z,1020.19
2018-12-05T00:15:08.519Z,1020.18
2018-12-05T00:15:34.669Z,1020.15
2018-12-05T00:16:00.822Z,1020.19
2018-12-05T00:16:26.926Z,1020.2
2018-12-05T00:16:53.048Z,1020.22
2018-12-05T00:17:19.175Z,1020.26
2018-12-05T00:17:45.333Z,1020.22
2018-12-05T00:18:11.531Z,1020.24
2018-12-05T00:18:37.684Z,1020.26
2018-12-05T00:19:03.806Z,1020.25
2018-12-05T00:19:29.913Z,1020.22
2018-12-05T00:19:56.078Z,1020.27
2018-12-05T00:20:22.181Z,1020.26
2018-12-05T00:20:48.297Z,1020.24
2018-12-05T00:21:14.431Z,1020.23
2018-12-05T00:21:40.552Z,1020.24
2018-12-05T00:22:06.643Z,1020.23
2018-12-05T00:22:32.796Z,1020.18
2018-12-05T00:22:58.908Z,1020.19
2018-12-05T00:23:25.036Z,1020.19
2018-12-05T00:23:51.133Z,1020.15
2018-12-05T00:24:17.256Z,1020.12
2018-12-05T00:24:43.373Z,1020.11
2018-12-05T00:25:09.483Z,1020.09
2018-12-05T00:25:35.612Z,1020.1
2018-12-05T00:26:01.727Z,1020.1
2018-12-05T00:26:27.825Z,1020.07
2018-12-05T00:26:53.965Z,1020.08
2018-12-05T00:27:20.099Z,1020.11
2018-12-05T00:27:46.196Z,1020.09
2018-12-05T00:28:12.305Z,1020.08
2018-12-05T00:28:38.405Z,1020.05
2018-12-05T00:29:04.536Z,1020.05
2018-12-05T00:29:30.666Z,1020.02
2018-12-05T00:29:56.784Z,1020.05
2018-12-05T00:30:22.935Z,1020.03
2018-12-05T00:30:49.059Z,1020.03
2018-12-05T00:31:15.210Z,1020.05
2018-12-05T00:31:41.329Z,1019.99
2018-12-05T00:32:07.432Z,1020.02
2018-12-05T00:32:33.582Z,1020
2018-12-05T00:32:59.698Z,1020.04
2018-12-05T00:33:25.796Z,1020.01
2018-12-05T00:33:51.950Z,1019.99
2018-12-05T00:34:18.029Z,1019.99
2018-12-05T00:34:44.149Z,1020
2018-12-05T00:35:10.267Z,1020
2018-12-05T00:35:36.376Z,1020
2018-12-05T00:36:02.491Z,1020
2018-12-05T00:36:28.605Z,1020
2018-12-05T00:36:54.725Z,1020.01
2018-12-05T00:37:20.836Z,1020
2018-12-05T00:37:46.947Z,1020.01
2018-12-05T00:38:13.125Z,1019.98
2018-12-05T00:38:39.236Z,1020.02
2018-12-05T00:39:05.366Z,1019.97
2018-12-05T00:39:31.507Z,1020.02
2018-12-05T00:39:58.599Z,1019.99
2018-12-05T00:40:24.721Z,1020.01
2018-12-05T00:40:50.843Z,1020.02
2018-12-05T00:41:16.977Z,1019.98
2018-12-05T00:41:43.073Z,1020
2018-12-05T00:42:09.178Z,1020.03
2018-12-05T00:42:35.297Z,1019.97
2018-12-05T00:43:01.422Z,1019.98
2018-12-05T00:43:27.524Z,1020.03
2018-12-05T00:43:53.623Z,1019.99
2018-12-05T00:44:19.742Z,1019.96
2018-12-05T00:44:45.861Z,1020.01
2018-12-05T00:45:11.993Z,1020
2018-12-05T00:45:38.128Z,1019.98
2018-12-05T00:46:04.310Z,1019.99
2018-12-05T00:46:30.405Z,1019.94
2018-12-05T00:46:56.522Z,1019.95
2018-12-05T00:47:22.653Z,1019.96
2018-12-05T00:47:48.765Z,1020
2018-12-05T00:48:14.876Z,1020
2018-12-05T00:48:40.985Z,1020
2018-12-05T00:49:07.121Z,1020.02
2018-12-05T00:49:33.230Z,1020
2018-12-05T00:49:59.442Z,1020.02
2018-12-05T00:50:25.614Z,1020.05
2018-12-05T00:50:51.727Z,1020.02
2018-12-05T00:51:17.827Z,1020.02
2018-12-05T00:51:43.939Z,1020.03
2018-12-05T00:52:10.059Z,1020.04
2018-12-05T00:52:36.186Z,1020.04
2018-12-05T00:53:02.320Z,1020.06
2018-12-05T00:53:28.444Z,1020.03
2018-12-05T00:53:54.541Z,1020
2018-12-05T00:54:20.676Z,1020.01
2018-12-05T00:54:46.788Z,1019.98
2018-12-05T00:55:12.886Z,1020.03
2018-12-05T00:55:39.008Z,1019.97
2018-12-05T00:56:05.125Z,1019.98
2018-12-05T00:56:31.243Z,1020.03
2018-12-05T00:56:57.351Z,1019.97
2018-12-05T00:57:23.452Z,1020.01
2018-12-05T00:57:49.562Z,1020
2018-12-05T00:58:15.687Z,1019.97
2018-12-05T00:58:41.824Z,1020.01
2018-12-05T00:59:07.929Z,1020.02
2018-12-05T00:59:34.075Z,1020.01
2018-12-05T01:00:00.214Z,1020.01
2018-12-05T01:00:26.331Z,1020.02
2018-12-05T01:00:52.439Z,1020.02
2018-12-05T01:01:18.545Z,1019.98
2018-12-05T01:01:44.685Z,1020.02
2018-12-05T01:02:10.813Z,1020.01
2018-12-05T01:02:36.940Z,1020.01
2018-12-05T01:03:03.033Z,1020.02
2018-12-05T01:03:29.135Z,1020.05
2018-12-05T01:03:55.264Z,1020.03
2018-12-05T01:04:21.348Z,1020.06
2018-12-05T01:04:47.463Z,1020.04
2018-12-05T01:05:13.588Z,1020.1
2018-12-05T01:05:39.688Z,1020.13
2018-12-05T01:06:05.799Z,1020.1
2018-12-05T01:06:31.914Z,1020.12
2018-12-05T01:06:58.023Z,1020.15
2018-12-05T01:07:24.185Z,1020.16
2018-12-05T01:07:50.302Z,1020.15
2018-12-05T01:08:16.412Z,1020.16
2018-12-05T01:08:42.573Z,1020.18
2018-12-05T01:09:08.662Z,1020.15
2018-12-05T01:09:34.770Z,1020.17
2018-12-05T01:10:00.963Z,1020.17
2018-12-05T01:10:27.035Z,1020.18
2018-12-05T01:10:53.135Z,1020.19
2018-12-05T01:11:19.260Z,1020.17
2018-12-05T01:11:45.354Z,1020.18
2018-12-05T01:12:11.465Z,1020.21
2018-12-05T01:12:37.583Z,1020.19
2018-12-05T01:13:03.687Z,1020.19
2018-12-05T01:13:29.793Z,1020.2
2018-12-05T01:13:55.913Z,1020.19
2018-12-05T01:14:22.028Z,1020.18
2018-12-05T01:14:48.125Z,1020.16
2018-12-05T01:15:14.847Z,1020.17
2018-12-05T01:15:41.001Z,1020.16
2018-12-05T01:16:07.099Z,1020.15
2018-12-05T01:16:33.233Z,1020.12
2018-12-05T01:16:59.367Z,1020.13
2018-12-05T01:17:25.463Z,1020.08
2018-12-05T01:17:51.579Z,1020.1
2018-12-05T01:18:17.712Z,1020.08
2018-12-05T01:18:43.863Z,1020.05
2018-12-05T01:19:09.974Z,1020.08
2018-12-05T01:19:36.078Z,1020.11
2018-12-05T01:20:02.187Z,1020.07
2018-12-05T01:20:28.304Z,1020.08
2018-12-05T01:20:54.426Z,1020.06
2018-12-05T01:21:20.530Z,1020.07
2018-12-05T01:21:46.641Z,1020.06
2018-12-05T01:22:12.793Z,1020.02
2018-12-05T01:22:38.951Z,1020.05
2018-12-05T01:23:05.052Z,1020.01
2018-12-05T01:23:31.177Z,1020
2018-12-05T01:23:57.292Z,1020.01
2018-12-05T01:24:23.408Z,1020
2018-12-05T01:24:49.540Z,1019.99
2018-12-05T01:25:15.639Z,1019.98
2018-12-05T01:25:41.758Z,1020.01
2018-12-05T01:26:07.909Z,1019.98
2018-12-05T01:26:34.043Z,1019.98
2018-12-05T01:27:00.151Z,1020.03
2018-12-05T01:27:26.262Z,1020.02
2018-12-05T01:27:52.368Z,1019.99
2018-12-05T01:28:18.513Z,1020.04
2018-12-05T01:28:44.618Z,1020
2018-12-05T01:29:10.723Z,1020.04
2018-12-05T01:29:36.829Z,1020.05
2018-12-05T01:30:02.951Z,1020.06
2018-12-05T01:30:29.042Z,1020.09
2018-12-05T01:30:55.210Z,1020.09
2018-12-05T01:31:21.319Z,1020.07
2018-12-05T01:31:47.432Z,1020.07
2018-12-05T01:32:13.545Z,1020.08
2018-12-05T01:32:39.657Z,1020.1
2018-12-05T01:33:05.758Z,1020.07
2018-12-05T01:33:32.147Z,1020.07
2018-12-05T01:33:58.269Z,1020.09
2018-12-05T01:34:24.396Z,1020.09
2018-12-05T01:34:50.503Z,1020.13
2018-12-05T01:35:16.614Z,1020.12
2018-12-05T01:35:42.720Z,1020.14
2018-12-05T01:36:08.854Z,1020.12
2018-12-05T01:36:34.981Z,1020.15
2018-12-05T01:37:01.093Z,1020.15
2018-12-05T01:37:27.197Z,1020.16
2018-12-05T01:37:53.328Z,1020.12
2018-12-05T01:38:19.428Z,1020.11
2018-12-05T01:38:45.530Z,1020.08
2018-12-05T01:39:11.659Z,1020.08
2018-12-05T01:39:37.759Z,1020.08
2018-12-05T01:40:03.875Z,1020.07
2018-12-05T01:40:30.017Z,1020.08
2018-12-05T01:40:56.119Z,1020.06
2018-12-05T01:41:22.266Z,1020.04
2018-12-05T01:41:48.446Z,1020
2018-12-05T01:42:14.555Z,1020.01
2018-12-05T01:42:40.683Z,1019.99
2018-12-05T01:43:06.826Z,1020.03
2018-12-05T01:43:32.928Z,1020.04
2018-12-05T01:43:59.038Z,1020.01
2018-12-05T01:44:25.145Z,1019.99
2018-12-05T01:44:51.252Z,1019.98
2018-12-05T01:45:17.363Z,1020.05
2018-12-05T01:45:43.492Z,1019.99
2018-12-05T01:46:09.591Z,1020
2018-12-05T01:46:35.694Z,1020.01
2018-12-05T01:47:01.809Z,1019.99
2018-12-05T01:47:27.941Z,1020.01
2018-12-05T01:47:54.059Z,1020.03
2018-12-05T01:48:20.179Z,1020.01
2018-12-05T01:48:46.304Z,1020.04
2018-12-05T01:49:12.411Z,1020.02
2018-12-05T01:49:38.511Z,1020.04
2018-12-05T01:50:04.657Z,1020.02
2018-12-05T01:50:30.761Z,1020.02
2018-12-05T01:50:56.870Z,1020.08
2018-12-05T01:51:22.967Z,1020.09
2018-12-05T01:51:49.096Z,1020.05
2018-12-05T01:52:15.202Z,1020.08
2018-12-05T01:52:41.307Z,1020.04
2018-12-05T01:53:07.452Z,1020.07
2018-12-05T01:53:33.583Z,1020.07
2018-12-05T01:53:59.695Z,1020.09
2018-12-05T01:54:25.807Z,1020.1
2018-12-05T01:54:51.927Z,1020.06
2018-12-05T01:55:18.033Z,1020.1
2018-12-05T01:55:44.135Z,1020.07
2018-12-05T01:56:10.303Z,1020.04
2018-12-05T01:56:36.398Z,1020.07
2018-12-05T01:57:02.512Z,1020.05
2018-12-05T01:57:28.625Z,1020.01
2018-12-05T01:57:54.741Z,1020.02
2018-12-05T01:58:20.844Z,1020.02
2018-12-05T01:58:46.952Z,1020.02
2018-12-05T01:59:13.064Z,1020.05
2018-12-05T01:59:39.167Z,1020.03
2018-12-05T02:00:05.410Z,1020.02
2018-12-05T02:00:31.470Z,1020.05
2018-12-05T02:00:57.568Z,1019.98
2018-12-05T02:01:23.708Z,1020.01
2018-12-05T02:01:49.874Z,1020.03
2018-12-05T02:02:15.988Z,1020.02
2018-12-05T02:02:42.120Z,1020.01
2018-12-05T02:03:08.234Z,1020.02
2018-12-05T02:03:34.372Z,1020.01
2018-12-05T02:04:00.501Z,1020.03
2018-12-05T02:04:26.615Z,1020.04
2018-12-05T02:04:52.738Z,1020.03
2018-12-05T02:05:18.881Z,1020.04
2018-12-05T02:05:45.110Z,1020.03
2018-12-05T02:06:11.164Z,1020.06
2018-12-05T02:06:37.280Z,1020.06
2018-12-05T02:07:03.386Z,1020.03
2018-12-05T02:07:29.495Z,1020.03
2018-12-05T02:07:55.617Z,1020
2018-12-05T02:08:21.726Z,1020.02
2018-12-05T02:08:47.833Z,1020.06
2018-12-05T02:09:13.944Z,1020.02
2018-12-05T02:09:40.045Z,1020
2018-12-05T02:10:06.154Z,1020.02
2018-12-05T02:10:32.265Z,1020.04
2018-12-05T02:10:58.377Z,1020.04
2018-12-05T02:11:24.518Z,1020.02
2018-12-05T02:11:50.644Z,1020.01
2018-12-05T02:12:16.749Z,1020.01
2018-12-05T02:12:42.866Z,1020.02
2018-12-05T02:13:08.978Z,1019.99
2018-12-05T02:13:36.100Z,1020.02
2018-12-05T02:14:02.205Z,1020.02
2018-12-05T02:14:28.321Z,1020.03
2018-12-05T02:14:54.439Z,1019.98
2018-12-05T02:15:20.567Z,1020.02
2018-12-05T02:15:46.667Z,1020
2018-12-05T02:16:12.817Z,1020.03
2018-12-05T02:16:38.942Z,1020.03
2018-12-05T02:17:05.086Z,1020.01
2018-12-05T02:17:31.191Z,1020.04
2018-12-05T02:17:57.347Z,1020.07
2018-12-05T02:18:23.449Z,1020.03
2018-12-05T02:18:49.593Z,1020.03
2018-12-05T02:19:15.718Z,1020.01
2018-12-05T02:19:41.810Z,1020.04
2018-12-05T02:20:07.923Z,1020.03
2018-12-05T02:20:34.035Z,1020.05
2018-12-05T02:21:00.136Z,1020.07
2018-12-05T02:21:26.255Z,1020.06
2018-12-05T02:21:52.376Z,1020.07
2018-12-05T02:22:18.482Z,1020.09
2018-12-05T02:22:44.595Z,1020.07
2018-12-05T02:23:10.696Z,1020.08
2018-12-05T02:23:36.814Z,1020.06
2018-12-05T02:24:02.927Z,1020.1
2018-12-05T02:24:29.041Z,1020.1
2018-12-05T02:24:55.199Z,1020.06
2018-12-05T02:25:21.330Z,1020.08
2018-12-05T02:25:47.444Z,1020.04
2018-12-05T02:26:13.620Z,1020.06
2018-12-05T02:26:39.757Z,1020.05
2018-12-05T02:27:05.887Z,1020.06
2018-12-05T02:27:31.991Z,1020.06
2018-12-05T02:27:58.133Z,1020.05
2018-12-05T02:28:24.248Z,1020.04
2018-12-05T02:28:50.346Z,1020.08
2018-12-05T02:29:16.467Z,1020.07
2018-12-05T02:29:42.593Z,1020.06
2018-12-05T02:30:08.748Z,1020.09
2018-12-05T02:30:34.941Z,1020.08
2018-12-05T02:31:01.111Z,1020.09
2018-12-05T02:31:27.218Z,1020.09
2018-12-05T02:31:53.339Z,1020.11
2018-12-05T02:32:19.444Z,1020.11
2018-12-05T02:32:45.563Z,1020.14
2018-12-05T02:33:11.703Z,1020.16
2018-12-05T02:33:37.808Z,1020.15
2018-12-05T02:34:03.914Z,1020.12
2018-12-05T02:34:30.036Z,1020.11
2018-12-05T02:34:56.132Z,1020.15
2018-12-05T02:35:22.274Z,1020.13
2018-12-05T02:35:48.395Z,1020.16
2018-12-05T02:36:14.575Z,1020.16
2018-12-05T02:36:40.680Z,1020.14
2018-12-05T02:37:06.822Z,1020.17
2018-12-05T02:37:32.922Z,1020.17
2018-12-05T02:37:59.048Z,1020.18
2018-12-05T02:38:25.176Z,1020.17
2018-12-05T02:38:51.272Z,1020.16
2018-12-05T02:39:17.392Z,1020.13
2018-12-05T02:39:43.533Z,1020.12
2018-12-05T02:40:09.718Z,1020.09
2018-12-05T02:40:35.827Z,1020.15
2018-12-05T02:41:01.975Z,1020.12
2018-12-05T02:41:28.153Z,1020.14
2018-12-05T02:41:54.259Z,1020.1
2018-12-05T02:42:20.376Z,1020.09
2018-12-05T02:42:46.484Z,1020.06
2018-12-05T02:43:12.589Z,1020.09
2018-12-05T02:43:38.722Z,1020.07
2018-12-05T02:44:04.857Z,1020.08
2018-12-05T02:44:30.991Z,1020.06
2018-12-05T02:44:57.488Z,1020.06
2018-12-05T02:45:23.648Z,1020.06
2018-12-05T02:45:49.753Z,1020.03
2018-12-05T02:46:15.923Z,1020.02
2018-12-05T02:46:42.028Z,1020.02
2018-12-05T02:47:08.197Z,1020.03
2018-12-05T02:47:34.301Z,1020
2018-12-05T02:48:00.455Z,1020.04
2018-12-05T02:48:26.564Z,1020.01
2018-12-05T02:48:52.729Z,1019.99
2018-12-05T02:49:18.865Z,1020.03
2018-12-05T02:49:44.967Z,1020.05
2018-12-05T02:50:11.159Z,1020
2018-12-05T02:50:37.208Z,1019.99
2018-12-05T02:51:03.320Z,1020.04
2018-12-05T02:51:29.424Z,1020
2018-12-05T02:51:55.570Z,1020
2018-12-05T02:52:21.694Z,1019.99
2018-12-05T02:52:47.789Z,1020
2018-12-05T02:53:13.915Z,1019.96
2018-12-05T02:53:40.053Z,1019.97
2018-12-05T02:54:06.179Z,1019.98
2018-12-05T02:54:32.282Z,1019.92
2018-12-05T02:54:58.386Z,1020
2018-12-05T02:55:24.501Z,1019.95
2018-12-05T02:55:50.618Z,1019.97
2018-12-05T02:56:16.810Z,1019.97
2018-12-05T02:56:42.916Z,1019.97
2018-12-05T02:57:09.041Z,1020
2018-12-05T02:57:35.153Z,1020
2018-12-05T02:58:01.273Z,1019.98
2018-12-05T02:58:27.380Z,1019.98
2018-12-05T02:58:53.480Z,1019.99
2018-12-05T02:59:19.620Z,1019.99
2018-12-05T02:59:45.728Z,1019.97
2018-12-05T03:00:11.829Z,1019.98
2018-12-05T03:00:37.938Z,1020.02
2018-12-05T03:01:04.038Z,1020.06
2018-12-05T03:01:30.144Z,1020.02
2018-12-05T03:01:56.252Z,1020.02
2018-12-05T03:02:22.353Z,1020.01
2018-12-05T03:02:48.464Z,1020.02
2018-12-05T03:03:14.571Z,1020.05
2018-12-05T03:03:40.682Z,1019.99
2018-12-05T03:04:06.789Z,1020.04
2018-12-05T03:04:32.887Z,1020.05
2018-12-05T03:04:58.996Z,1020.02
2018-12-05T03:05:25.150Z,1020.03
2018-12-05T03:05:51.287Z,1020.01
2018-12-05T03:06:17.415Z,1020
2018-12-05T03:06:43.516Z,1020.01
2018-12-05T03:07:09.649Z,1020
2018-12-05T03:07:35.771Z,1020.01
2018-12-05T03:08:01.948Z,1020.01
2018-12-05T03:08:28.064Z,1020
2018-12-05T03:08:54.158Z,1019.98
2018-12-05T03:09:20.291Z,1019.98
2018-12-05T03:09:46.475Z,1019.98
2018-12-05T03:10:12.639Z,1020.01
2018-12-05T03:10:38.747Z,1020
2018-12-05T03:11:04.851Z,1019.96
2018-12-05T03:11:30.992Z,1019.93
2018-12-05T03:11:57.093Z,1019.94
2018-12-05T03:12:23.198Z,1019.98
2018-12-05T03:12:49.308Z,1019.94
2018-12-05T03:13:15.434Z,1019.94
2018-12-05T03:13:41.550Z,1019.94
2018-12-05T03:14:07.674Z,1019.96
2018-12-05T03:14:33.774Z,1019.89
2018-12-05T03:14:59.938Z,1019.91
2018-12-05T03:15:26.040Z,1019.88
2018-12-05T03:15:52.180Z,1019.92
2018-12-05T03:16:18.313Z,1019.93
2018-12-05T03:16:44.446Z,1019.89
2018-12-05T03:17:10.551Z,1019.84
2018-12-05T03:17:36.658Z,1019.9
2018-12-05T03:18:02.794Z,1019.88
2018-12-05T03:18:28.899Z,1019.89
2018-12-05T03:18:54.999Z,1019.89
2018-12-05T03:19:21.107Z,1019.89
2018-12-05T03:19:47.210Z,1019.87
2018-12-05T03:20:13.319Z,1019.91
2018-12-05T03:20:39.422Z,1019.91
2018-12-05T03:21:05.533Z,1019.88
2018-12-05T03:21:31.652Z,1019.89
2018-12-05T03:21:57.764Z,1019.88
2018-12-05T03:22:23.907Z,1019.92
2018-12-05T03:22:50.032Z,1019.91
2018-12-05T03:23:16.190Z,1019.93
2018-12-05T03:23:42.329Z,1019.91
2018-12-05T03:24:08.431Z,1019.88
2018-12-05T03:24:34.529Z,1019.89
2018-12-05T03:25:00.723Z,1019.89
2018-12-05T03:25:26.828Z,1019.9
2018-12-05T03:25:52.964Z,1019.92
2018-12-05T03:26:19.095Z,1019.91
2018-12-05T03:26:45.260Z,1019.9
2018-12-05T03:27:11.362Z,1019.91
2018-12-05T03:27:37.499Z,1019.94
2018-12-05T03:28:03.620Z,1019.92
2018-12-05T03:28:29.723Z,1019.99
2018-12-05T03:28:55.835Z,1019.96
2018-12-05T03:29:21.968Z,1019.96
2018-12-05T03:29:48.070Z,1019.97
2018-12-05T03:30:14.225Z,1019.94
2018-12-05T03:30:40.431Z,1019.99
2018-12-05T03:31:06.559Z,1019.99
2018-12-05T03:31:32.735Z,1020.02
2018-12-05T03:31:58.869Z,1020.04
2018-12-05T03:32:25.066Z,1019.99
2018-12-05T03:32:51.259Z,1019.99
2018-12-05T03:33:17.385Z,1020.01
2018-12-05T03:33:43.550Z,1020.02
2018-12-05T03:34:09.677Z,1020
2018-12-05T03:34:35.806Z,1020.01
2018-12-05T03:35:01.952Z,1020.01
2018-12-05T03:35:28.092Z,1020.02
2018-12-05T03:35:54.195Z,1020.04
2018-12-05T03:36:20.330Z,1020.02
2018-12-05T03:36:46.468Z,1020.02
2018-12-05T03:37:12.626Z,1020.02
2018-12-05T03:37:38.763Z,1020.01
2018-12-05T03:38:04.878Z,1020.03
2018-12-05T03:38:30.981Z,1020.02
2018-12-05T03:38:57.089Z,1020.01
2018-12-05T03:39:23.199Z,1020.02
2018-12-05T03:39:49.333Z,1020
2018-12-05T03:40:15.461Z,1020.01
2018-12-05T03:40:41.566Z,1020.02
2018-12-05T03:41:07.671Z,1020.01
2018-12-05T03:41:33.805Z,1020.01
2018-12-05T03:41:59.906Z,1020.01
2018-12-05T03:42:26.037Z,1020.02
2018-12-05T03:42:52.147Z,1020.05
2018-12-05T03:43:18.274Z,1020.02
2018-12-05T03:43:44.380Z,1020
2018-12-05T03:44:10.508Z,1020.02
2018-12-05T03:44:36.645Z,1020.04
2018-12-05T03:45:02.835Z,1020.02
2018-12-05T03:45:28.964Z,1019.99
2018-12-05T03:45:55.071Z,1019.98
2018-12-05T03:46:21.169Z,1019.98
2018-12-05T03:46:47.307Z,1019.94
2018-12-05T03:47:13.440Z,1019.98
2018-12-05T03:47:39.548Z,1019.92
2018-12-05T03:48:05.677Z,1019.95
2018-12-05T03:48:31.819Z,1019.93
2018-12-05T03:48:57.915Z,1019.98
2018-12-05T03:49:24.025Z,1019.93
2018-12-05T03:49:50.121Z,1019.93
2018-12-05T03:50:16.225Z,1019.9
2018-12-05T03:50:42.357Z,1019.9
2018-12-05T03:51:08.509Z,1019.92
2018-12-05T03:51:34.617Z,1019.89
2018-12-05T03:52:00.724Z,1019.91
2018-12-05T03:52:26.828Z,1019.91
2018-12-05T03:52:52.992Z,1019.87
2018-12-05T03:53:19.120Z,1019.87
2018-12-05T03:53:45.227Z,1019.84
2018-12-05T03:54:11.323Z,1019.85
2018-12-05T03:54:37.452Z,1019.8
2018-12-05T03:55:03.585Z,1019.83
2018-12-05T03:55:30.648Z,1019.84
2018-12-05T03:55:56.751Z,1019.83
2018-12-05T03:56:22.884Z,1019.87
2018-12-05T03:56:49.017Z,1019.85
2018-12-05T03:57:15.125Z,1019.85
2018-12-05T03:57:41.253Z,1019.88
2018-12-05T03:58:07.364Z,1019.85
2018-12-05T03:58:33.488Z,1019.83
2018-12-05T03:58:59.600Z,1019.84
2018-12-05T03:59:25.700Z,1019.86
2018-12-05T03:59:51.802Z,1019.87
2018-12-05T04:00:17.945Z,1019.84
2018-12-05T04:00:44.072Z,1019.83
2018-12-05T04:01:10.182Z,1019.85
2018-12-05T04:01:36.283Z,1019.85
2018-12-05T04:02:02.383Z,1019.82
2018-12-05T04:02:28.522Z,1019.84
2018-12-05T04:02:54.624Z,1019.81
2018-12-05T04:03:20.730Z,1019.81
2018-12-05T04:03:46.831Z,1019.8
2018-12-05T04:04:12.931Z,1019.78
2018-12-05T04:04:39.070Z,1019.79
2018-12-05T04:05:05.204Z,1019.81
2018-12-05T04:05:31.307Z,1019.79
2018-12-05T04:05:57.437Z,1019.76
2018-12-05T04:06:23.543Z,1019.76
2018-12-05T04:06:49.653Z,1019.73
2018-12-05T04:07:15.754Z,1019.74
2018-12-05T04:07:41.858Z,1019.76
2018-12-05T04:08:07.962Z,1019.77
2018-12-05T04:08:34.070Z,1019.77
2018-12-05T04:09:00.174Z,1019.77
2018-12-05T04:09:26.286Z,1019.76
2018-12-05T04:09:52.412Z,1019.8
2018-12-05T04:10:18.549Z,1019.75
2018-12-05T04:10:44.645Z,1019.77
2018-12-05T04:11:10.761Z,1019.79
2018-12-05T04:11:36.881Z,1019.8
2018-12-05T04:12:03.051Z,1019.78
2018-12-05T04:12:29.175Z,1019.74
2018-12-05T04:12:56.636Z,1019.76
2018-12-05T04:13:22.766Z,1019.78
2018-12-05T04:13:48.903Z,1019.74
2018-12-05T04:14:15.013Z,1019.77
2018-12-05T04:14:41.111Z,1019.72
2018-12-05T04:15:07.245Z,1019.75
2018-12-05T04:15:33.350Z,1019.75
2018-12-05T04:15:59.477Z,1019.74
2018-12-05T04:16:25.580Z,1019.74
2018-12-05T04:16:51.719Z,1019.77
2018-12-05T04:17:17.822Z,1019.77
2018-12-05T04:17:43.954Z,1019.77
2018-12-05T04:18:10.061Z,1019.8
2018-12-05T04:18:36.170Z,1019.78
2018-12-05T04:19:02.280Z,1019.77
2018-12-05T04:19:28.369Z,1019.8
2018-12-05T04:19:54.469Z,1019.81
2018-12-05T04:20:20.576Z,1019.8
2018-12-05T04:20:46.677Z,1019.81
2018-12-05T04:21:12.783Z,1019.83
2018-12-05T04:21:38.911Z,1019.87
2018-12-05T04:22:05.072Z,1019.83
2018-12-05T04:22:31.157Z,1019.84
2018-12-05T04:22:57.266Z,1019.84
2018-12-05T04:23:25.259Z,1019.87
2018-12-05T04:23:50.481Z,1019.86
2018-12-05T04:24:16.589Z,1019.86
2018-12-05T04:24:42.691Z,1019.88
2018-12-05T04:25:08.825Z,1019.88
2018-12-05T04:25:34.950Z,1019.9
2018-12-05T04:26:01.059Z,1019.89
2018-12-05T04:26:27.191Z,1019.9
2018-12-05T04:26:53.302Z,1019.91
2018-12-05T04:27:19.403Z,1019.93
2018-12-05T04:27:45.507Z,1019.86
2018-12-05T04:28:11.658Z,1019.91
2018-12-05T04:28:37.786Z,1019.88
2018-12-05T04:29:03.892Z,1019.88
2018-12-05T04:29:29.994Z,1019.89
2018-12-05T04:29:56.100Z,1019.86
2018-12-05T04:30:22.211Z,1019.87
2018-12-05T04:30:48.335Z,1019.85
2018-12-05T04:31:14.444Z,1019.82
2018-12-05T04:31:40.581Z,1019.85
2018-12-05T04:32:06.706Z,1019.83
2018-12-05T04:32:32.835Z,1019.85
2018-12-05T04:32:58.936Z,1019.87
2018-12-05T04:33:25.069Z,1019.84
2018-12-05T04:33:51.175Z,1019.85
2018-12-05T04:34:17.286Z,1019.88
2018-12-05T04:34:43.389Z,1019.88
2018-12-05T04:35:09.513Z,1019.9
2018-12-05T04:35:35.624Z,1019.85
2018-12-05T04:36:01.732Z,1019.85
2018-12-05T04:36:27.867Z,1019.85
2018-12-05T04:36:53.966Z,1019.82
2018-12-05T04:37:20.071Z,1019.84
2018-12-05T04:37:46.195Z,1019.82
2018-12-05T04:38:13.289Z,1019.82
2018-12-05T04:38:39.392Z,1019.85
2018-12-05T04:39:05.527Z,1019.84
2018-12-05T04:39:31.700Z,1019.85
2018-12-05T04:39:57.803Z,1019.88
2018-12-05T04:40:23.906Z,1019.84
2018-12-05T04:40:50.006Z,1019.89
2018-12-05T04:41:16.138Z,1019.87
2018-12-05T04:41:42.262Z,1019.85
2018-12-05T04:42:08.371Z,1019.88
2018-12-05T04:42:34.473Z,1019.85
2018-12-05T04:43:00.601Z,1019.91
2018-12-05T04:43:26.734Z,1019.87
2018-12-05T04:43:52.862Z,1019.91
2018-12-05T04:44:19.032Z,1019.93
2018-12-05T04:44:45.131Z,1019.93
2018-12-05T04:45:11.231Z,1019.95
2018-12-05T04:45:37.341Z,1019.95
2018-12-05T04:46:03.471Z,1019.95
2018-12-05T04:46:29.609Z,1019.93
2018-12-05T04:46:55.769Z,1019.94
2018-12-05T04:47:21.870Z,1019.93
2018-12-05T04:47:48.017Z,1019.94
2018-12-05T04:48:14.133Z,1019.97
2018-12-05T04:48:40.264Z,1019.95
2018-12-05T04:49:06.367Z,1019.95
2018-12-05T04:49:32.467Z,1019.98
2018-12-05T04:49:58.600Z,1019.93
2018-12-05T04:50:24.707Z,1019.9
2018-12-05T04:50:50.808Z,1019.95
2018-12-05T04:51:16.919Z,1019.95
2018-12-05T04:51:43.018Z,1019.92
2018-12-05T04:52:09.128Z,1019.91
2018-12-05T04:52:35.237Z,1019.89
2018-12-05T04:53:01.333Z,1019.86
2018-12-05T04:53:27.471Z,1019.84
2018-12-05T04:53:53.579Z,1019.85
2018-12-05T04:54:19.713Z,1019.85
2018-12-05T04:54:45.819Z,1019.82
2018-12-05T04:55:11.922Z,1019.8
2018-12-05T04:55:38.058Z,1019.81
2018-12-05T04:56:04.164Z,1019.82
2018-12-05T04:56:30.295Z,1019.83
2018-12-05T04:56:56.396Z,1019.83
2018-12-05T04:57:22.503Z,1019.84
2018-12-05T04:57:48.609Z,1019.85
2018-12-05T04:58:14.744Z,1019.83
2018-12-05T04:58:40.844Z,1019.88
2018-12-05T04:59:06.952Z,1019.82
2018-12-05T04:59:33.050Z,1019.82
2018-12-05T04:59:59.147Z,1019.83
2018-12-05T05:00:25.263Z,1019.85
2018-12-05T05:00:51.394Z,1019.82
2018-12-05T05:01:17.496Z,1019.84
2018-12-05T05:01:43.621Z,1019.81
2018-12-05T05:02:09.758Z,1019.79
2018-12-05T05:02:35.885Z,1019.8
2018-12-05T05:03:01.999Z,1019.83
2018-12-05T05:03:28.135Z,1019.8
2018-12-05T05:03:54.253Z,1019.82
2018-12-05T05:04:20.360Z,1019.77
2018-12-05T05:04:46.485Z,1019.79
2018-12-05T05:05:12.588Z,1019.8
2018-12-05T05:05:38.698Z,1019.81
2018-12-05T05:06:04.852Z,1019.83
2018-12-05T05:06:30.962Z,1019.81
2018-12-05T05:06:58.066Z,1019.8
2018-12-05T05:07:24.165Z,1019.76
2018-12-05T05:07:50.280Z,1019.77
2018-12-05T05:08:16.392Z,1019.77
2018-12-05T05:08:42.494Z,1019.78
2018-12-05T05:09:08.598Z,1019.75
2018-12-05T05:09:34.734Z,1019.8
2018-12-05T05:10:00.891Z,1019.77
2018-12-05T05:10:26.998Z,1019.76
2018-12-05T05:10:53.121Z,1019.76
2018-12-05T05:11:19.232Z,1019.76
2018-12-05T05:11:45.333Z,1019.75
2018-12-05T05:12:11.468Z,1019.75
2018-12-05T05:12:37.569Z,1019.75
2018-12-05T05:13:03.682Z,1019.74
2018-12-05T05:13:29.831Z,1019.72
2018-12-05T05:13:55.986Z,1019.7
2018-12-05T05:14:22.092Z,1019.71
2018-12-05T05:14:48.203Z,1019.73
2018-12-05T05:15:14.334Z,1019.73
2018-12-05T05:15:40.458Z,1019.7
2018-12-05T05:16:06.585Z,1019.7
2018-12-05T05:16:32.689Z,1019.71
2018-12-05T05:16:58.789Z,1019.7
2018-12-05T05:17:24.894Z,1019.71
2018-12-05T05:17:50.999Z,1019.69
2018-12-05T05:18:17.099Z,1019.7